createdAt,value
2022-08-26T00:06:46.448Z,69.92
2022-08-26T00:13:49.504Z,69.54
2022-08-26T00:20:51.480Z,70.18
2022-08-26T00:27:53.109Z,70.44
2022-08-26T00:34:57.508Z,70.84
2022-08-26T00:42:00.421Z,71.29
2022-08-26T00:49:12.189Z,71.51
2022-08-26T00:56:21.588Z,71.96
2022-08-26T01:03:23.819Z,72.10
2022-08-26T01:10:28.007Z,72.68
2022-08-26T01:17:29.869Z,72.71
2022-08-26T01:24:35.454Z,73.40
2022-08-26T01:31:42.585Z,73.37
2022-08-26T01:38:44.568Z,73.67
2022-08-26T01:45:46.413Z,73.89
2022-08-26T01:52:54.193Z,74.04
2022-08-26T01:59:58.962Z,74.43
2022-08-26T02:07:03.355Z,75.15
2022-08-26T02:14:26.771Z,75.13
2022-08-26T02:21:29.252Z,75.25
2022-08-26T02:28:34.689Z,76.21
2022-08-26T02:35:37.554Z,75.98
2022-08-26T02:42:39.228Z,76.30
2022-08-26T02:49:42.577Z,76.89
2022-08-26T02:56:45.963Z,76.84
2022-08-26T03:03:47.569Z,76.91
2022-08-26T03:10:51.202Z,77.03
2022-08-26T03:17:52.846Z,76.97
2022-08-26T03:24:54.568Z,77.15
2022-08-26T03:31:56.286Z,77.13
2022-08-26T03:38:57.927Z,77.31
2022-08-26T03:45:59.524Z,77.50
2022-08-26T03:53:01.261Z,77.56
2022-08-26T04:00:08.795Z,77.84
2022-08-26T04:07:10.526Z,78.09
2022-08-26T04:14:17.715Z,78.11
2022-08-26T04:21:22.022Z,78.49
2022-08-26T04:28:24.791Z,78.73
2022-08-26T04:35:26.448Z,79.17
2022-08-26T04:42:29.273Z,79.68
2022-08-26T04:49:35.600Z,80.42
2022-08-26T04:56:38.895Z,80.33
2022-08-26T05:03:40.947Z,80.36
2022-08-26T05:10:45.239Z,80.63
2022-08-26T05:17:46.844Z,80.92
2022-08-26T05:24:48.747Z,80.86
2022-08-26T05:31:51.670Z,80.43
2022-08-26T05:38:53.317Z,80.01
2022-08-26T05:45:55.003Z,79.38
2022-08-26T05:52:57.832Z,79.29
2022-08-26T06:00:00.884Z,79.10
2022-08-26T06:07:02.701Z,79.17
2022-08-26T06:14:07.802Z,78.85
2022-08-26T06:21:19.496Z,78.05
2022-08-26T06:28:21.133Z,78.48
2022-08-26T06:35:22.805Z,77.81
2022-08-26T06:42:25.650Z,77.87
2022-08-26T06:49:28.337Z,77.59
2022-08-26T06:56:35.622Z,76.85
2022-08-26T07:03:39.733Z,75.92
2022-08-26T07:10:42.422Z,75.04
2022-08-26T07:17:44.041Z,74.17
2022-08-26T07:24:45.719Z,73.40
2022-08-26T07:31:47.487Z,71.58
2022-08-26T07:38:50.904Z,68.90
2022-08-26T07:45:52.595Z,66.70
2022-08-26T07:52:54.395Z,66.98
2022-08-26T07:59:56.150Z,64.70
2022-08-26T08:06:58.344Z,62.81
2022-08-26T08:14:01.569Z,61.52
2022-08-26T08:21:21.330Z,60.98
2022-08-26T08:28:25.241Z,59.52
2022-08-26T08:35:26.906Z,56.91
2022-08-26T08:42:44.041Z,56.08
2022-08-26T08:49:45.533Z,54.91
2022-08-26T08:56:52.958Z,51.67
2022-08-26T09:04:11.586Z,51.61
2022-08-26T09:11:13.754Z,49.68
2022-08-26T09:18:37.567Z,48.27
2022-08-26T09:25:50.611Z,48.92
2022-08-26T09:33:10.145Z,47.66
2022-08-26T09:40:34.853Z,47.03
2022-08-26T09:47:46.166Z,47.84
2022-08-26T09:55:09.781Z,43.59
2022-08-26T10:02:26.973Z,45.44
2022-08-26T10:09:31.069Z,45.03
2022-08-26T10:16:50.593Z,47.77
2022-08-26T10:23:55.141Z,42.54
2022-08-26T10:31:20.288Z,41.82
2022-08-26T10:38:44.376Z,40.91
2022-08-26T10:45:51.714Z,40.24
2022-08-26T10:52:56.330Z,38.15
2022-08-26T11:00:36.189Z,37.49
2022-08-26T11:07:51.316Z,40.26
2022-08-26T11:14:58.698Z,41.68
2022-08-26T11:22:12.299Z,43.18
2022-08-26T11:29:14.569Z,44.97
2022-08-26T11:36:47.036Z,46.03
2022-08-26T11:43:50.343Z,47.28
2022-08-26T11:50:53.903Z,47.61
2022-08-26T11:57:57.246Z,48.53
2022-08-26T12:04:58.914Z,50.11
2022-08-26T12:12:35.274Z,47.78
2022-08-26T12:19:38.179Z,54.00
2022-08-26T12:26:39.838Z,57.95
2022-08-26T12:33:41.560Z,60.49
2022-08-26T12:40:44.101Z,64.93
2022-08-26T12:47:45.822Z,66.84
2022-08-26T12:54:59.089Z,66.36
2022-08-26T13:02:01.956Z,69.69
2022-08-26T13:09:09.656Z,73.75
2022-08-26T13:16:12.048Z,82.13
2022-08-26T13:23:14.689Z,89.59
2022-08-26T13:30:16.720Z,91.96
2022-08-26T13:37:22.431Z,93.12
2022-08-26T13:44:38.877Z,91.35
2022-08-26T13:51:40.616Z,86.59
2022-08-26T13:58:42.324Z,88.40
2022-08-26T14:05:44.068Z,88.05
2022-08-26T14:12:45.870Z,86.12
2022-08-26T14:19:49.148Z,85.49
2022-08-26T14:26:50.907Z,86.31
2022-08-26T14:33:52.595Z,85.19
2022-08-26T14:40:54.276Z,86.48
2022-08-26T14:47:56.982Z,85.01
2022-08-26T14:54:58.686Z,82.97
2022-08-26T15:02:00.847Z,86.22
2022-08-26T15:09:03.193Z,92.80
2022-08-26T15:16:05.062Z,97.27
2022-08-26T15:23:07.418Z,99.13
2022-08-26T15:30:10.677Z,100.00
2022-08-26T15:37:12.521Z,99.39
2022-08-26T15:44:16.146Z,96.14
2022-08-26T15:51:26.076Z,97.86
2022-08-26T15:58:28.134Z,97.80
2022-08-26T16:05:29.902Z,100.00
2022-08-26T16:12:31.646Z,97.43
2022-08-26T16:19:33.327Z,97.04
2022-08-26T16:26:36.431Z,95.83
2022-08-26T16:33:38.114Z,97.96
2022-08-26T16:40:40.587Z,97.29
2022-08-26T16:47:42.327Z,99.04
2022-08-26T16:54:44.016Z,98.83
2022-08-26T17:01:45.794Z,99.44
2022-08-26T17:08:47.903Z,99.40
2022-08-26T17:15:54.215Z,98.62
2022-08-26T17:23:00.171Z,99.32
2022-08-26T17:30:01.935Z,99.65
2022-08-26T17:37:03.656Z,99.49
2022-08-26T17:44:05.458Z,98.74
2022-08-26T17:51:12.466Z,99.16
2022-08-26T17:58:14.977Z,100.00
2022-08-26T18:05:17.518Z,100.00
2022-08-26T18:12:19.269Z,100.00
2022-08-26T18:19:20.887Z,100.00
2022-08-26T18:26:48.171Z,100.00
2022-08-26T18:33:50.001Z,100.00
2022-08-26T18:40:52.219Z,100.00
2022-08-26T18:47:53.933Z,100.00
2022-08-26T18:54:55.570Z,100.00
2022-08-26T19:01:57.353Z,100.00
2022-08-26T19:08:59.820Z,100.00
2022-08-26T19:16:01.895Z,100.00
2022-08-26T19:23:10.607Z,100.00
2022-08-26T19:30:23.392Z,100.00
2022-08-26T19:37:25.076Z,100.00
2022-08-26T19:44:45.263Z,100.00
2022-08-26T19:51:46.920Z,100.00
2022-08-26T19:58:49.159Z,100.00
2022-08-26T20:05:50.784Z,100.00
2022-08-26T20:12:52.587Z,100.00
2022-08-26T20:20:28.449Z,100.00
2022-08-26T20:27:38.367Z,100.00
2022-08-26T20:34:40.297Z,100.00
2022-08-26T20:41:43.144Z,100.00
2022-08-26T20:48:45.017Z,100.00
2022-08-26T20:55:46.683Z,100.00
2022-08-26T21:02:51.409Z,100.00
2022-08-26T21:09:53.143Z,100.00
2022-08-26T21:16:55.230Z,100.00
2022-08-26T21:23:57.038Z,100.00
2022-08-26T21:31:02.102Z,100.00
2022-08-26T21:38:03.800Z,100.00
2022-08-26T21:45:06.185Z,99.87
2022-08-26T21:52:07.864Z,100.00
2022-08-26T21:59:09.583Z,100.00
2022-08-26T22:06:11.377Z,100.00
2022-08-26T22:13:14.036Z,99.73
2022-08-26T22:20:17.173Z,100.00
2022-08-26T22:27:19.004Z,100.00
2022-08-26T22:34:22.857Z,100.00
2022-08-26T22:41:24.763Z,100.00
2022-08-26T22:48:26.942Z,100.00
2022-08-26T22:55:28.647Z,100.00
2022-08-26T23:02:30.320Z,100.00
2022-08-26T23:16:39.114Z,100.00
2022-08-26T23:23:41.452Z,100.00
2022-08-26T23:30:43.603Z,100.00
2022-08-26T23:37:46.077Z,100.00
2022-08-26T23:44:48.832Z,100.00
2022-08-26T23:52:09.221Z,100.00
2022-08-26T23:59:10.899Z,100.00
